Time;durP1;ratioP1;P1;durP2;ratioP2;P2;SDS_P1;SDS_P2;PMS_P1;PMS_P2;Temp;Humidity;BMP_temperature;BMP_pressure;BME280_temperature;BME280_humidity;BME280_pressure;Samples;Min_cycle;Max_cycle;Signal;HPM_P1;HPM_P2
2023/03/01 00:02:58;;;;;;;171.33;84.27;;;-3.00;99.90;;;;;;10496075;28;20229;-79
2023/03/01 00:08:01;;;;;;;173.03;85.63;;;-2.90;99.90;;;;;;10493570;28;20991;-79
2023/03/01 00:13:05;;;;;;;170.30;82.87;;;-3.00;99.90;;;;;;10483820;28;20279;-79
2023/03/01 00:18:08;;;;;;;148.07;73.60;;;-3.10;99.90;;;;;;10493670;28;20757;-79
2023/03/01 00:23:11;;;;;;;174.50;83.53;;;-2.70;99.90;;;;;;10494117;28;20234;-79
2023/03/01 00:28:14;;;;;;;169.80;83.17;;;-2.70;99.90;;;;;;10496013;28;20307;-79
2023/03/01 00:33:16;;;;;;;161.03;84.87;;;-2.80;99.90;;;;;;10492710;28;20278;-79
2023/03/01 00:38:19;;;;;;;155.40;76.83;;;-2.70;99.90;;;;;;10509823;28;20280;-79
2023/03/01 00:43:21;;;;;;;164.13;78.70;;;-2.80;99.90;;;;;;10492206;28;20226;-79
2023/03/01 00:48:24;;;;;;;166.80;86.23;;;-2.70;99.90;;;;;;10493838;28;20233;-79
2023/03/01 00:53:26;;;;;;;176.27;87.53;;;-2.70;99.90;;;;;;10494212;28;20233;-79
2023/03/01 00:58:30;;;;;;;171.10;86.53;;;-2.90;99.90;;;;;;10492234;28;20225;-79
2023/03/01 01:03:32;;;;;;;163.20;86.10;;;-3.00;99.90;;;;;;10479079;28;20250;-79
2023/03/01 01:08:35;;;;;;;145.50;74.40;;;-3.00;99.90;;;;;;10486418;28;20995;-79
2023/03/01 01:13:39;;;;;;;143.30;73.00;;;-2.80;99.90;;;;;;10491746;28;20283;-79
2023/03/01 01:18:42;;;;;;;172.67;85.87;;;-2.80;99.90;;;;;;10491450;28;20279;-79
2023/03/01 01:23:45;;;;;;;167.70;88.23;;;-3.10;99.90;;;;;;10492180;28;20254;-80
2023/03/01 01:28:48;;;;;;;181.57;91.10;;;-3.30;99.90;;;;;;10507233;28;20258;-80
2023/03/01 01:33:52;;;;;;;175.00;87.53;;;-3.40;99.90;;;;;;10493106;28;20259;-79
2023/03/01 01:38:55;;;;;;;176.17;84.50;;;-3.20;99.90;;;;;;10506503;28;20272;-79
2023/03/01 01:44:15;;;;;;;168.27;85.70;;;-3.30;99.90;;;;;;10490366;28;20246;-79
2023/03/01 01:49:36;;;;;;;173.53;84.97;;;-3.40;99.90;;;;;;10489818;28;20281;-79
2023/03/01 01:54:57;;;;;;;164.10;79.30;;;-3.30;99.90;;;;;;10490691;28;20221;-79
2023/03/01 02:00:03;;;;;;;168.57;85.37;;;-2.80;99.90;;;;;;10490125;28;20206;-79
2023/03/01 02:05:32;;;;;;;181.57;86.80;;;-2.60;99.90;;;;;;10490990;28;20265;-79
2023/03/01 02:10:35;;;;;;;178.23;89.07;;;-2.70;99.90;;;;;;10491119;28;20225;-79
2023/03/01 02:15:40;;;;;;;174.27;90.10;;;-2.70;99.90;;;;;;10490531;28;20238;-80
2023/03/01 02:20:57;;;;;;;165.30;84.10;;;-3.00;99.90;;;;;;10486702;28;20237;-79
2023/03/01 02:26:27;;;;;;;212.57;99.97;;;-3.20;99.90;;;;;;10490502;28;20245;-79
2023/03/01 02:31:43;;;;;;;218.07;105.43;;;-3.10;99.90;;;;;;10485458;28;20634;-79
2023/03/01 02:36:53;;;;;;;205.50;94.60;;;-3.30;99.90;;;;;;10489269;28;20950;-79
2023/03/01 02:41:58;;;;;;;228.43;111.00;;;-3.10;99.90;;;;;;10489516;28;20230;-79
2023/03/01 02:47:03;;;;;;;195.50;97.47;;;-2.80;99.90;;;;;;10487914;28;20660;-79
2023/03/01 02:52:38;;;;;;;183.10;91.80;;;-3.00;99.90;;;;;;10487379;28;20283;-79
2023/03/01 02:57:50;;;;;;;193.57;93.50;;;-3.10;99.90;;;;;;10485999;28;20308;-80
2023/03/01 03:02:56;;;;;;;201.03;95.57;;;-2.80;99.90;;;;;;10487370;28;20206;-79
2023/03/01 03:08:01;;;;;;;179.23;87.90;;;-3.00;99.90;;;;;;10483244;28;20257;-78
2023/03/01 03:13:11;;;;;;;181.90;93.27;;;-2.90;99.90;;;;;;10485271;28;20751;-79
2023/03/01 03:18:16;;;;;;;200.23;92.20;;;-3.20;99.90;;;;;;10485363;28;20263;-79
2023/03/01 03:23:22;;;;;;;186.97;94.40;;;-3.30;99.90;;;;;;10477123;28;20245;-79
2023/03/01 03:28:28;;;;;;;173.97;89.63;;;-3.20;99.90;;;;;;10474391;28;20258;-79
2023/03/01 03:33:31;;;;;;;160.20;85.40;;;-3.20;99.90;;;;;;10472540;28;20233;-79
2023/03/01 03:38:33;;;;;;;174.30;92.77;;;-3.50;99.90;;;;;;10468085;28;20287;-79
2023/03/01 03:43:38;;;;;;;184.87;91.80;;;-3.50;99.90;;;;;;10468494;28;20226;-79
2023/03/01 03:48:43;;;;;;;173.37;89.70;;;-3.80;99.90;;;;;;10469211;28;20257;-78
2023/03/01 03:53:46;;;;;;;167.63;84.27;;;-3.40;99.90;;;;;;10487228;28;20237;-79
2023/03/01 03:58:49;;;;;;;173.17;89.47;;;-3.30;99.90;;;;;;10478300;28;20226;-79
2023/03/01 04:03:54;;;;;;;151.87;82.70;;;-3.00;99.90;;;;;;10476987;28;20230;-78
2023/03/01 04:08:58;;;;;;;169.13;88.67;;;-2.90;99.90;;;;;;10488027;28;20291;-79
2023/03/01 04:14:01;;;;;;;162.90;86.27;;;-2.90;99.90;;;;;;10487955;28;20287;-79
2023/03/01 04:19:06;;;;;;;173.00;90.90;;;-2.90;99.90;;;;;;10488694;28;20283;-79
2023/03/01 04:24:09;;;;;;;177.50;90.73;;;-2.90;99.90;;;;;;10488928;28;20226;-79
2023/03/01 04:29:12;;;;;;;174.23;90.20;;;-3.10;99.90;;;;;;10495831;28;20303;-78
2023/03/01 04:34:14;;;;;;;179.10;88.87;;;-3.30;99.90;;;;;;10494685;28;20230;-78
2023/03/01 04:39:17;;;;;;;173.10;86.37;;;-3.20;99.90;;;;;;10490643;28;20278;-79
2023/03/01 04:44:19;;;;;;;149.50;80.33;;;-3.20;99.90;;;;;;10495162;28;20236;-79
2023/03/01 04:49:22;;;;;;;154.47;85.43;;;-3.20;99.90;;;;;;10495487;28;20642;-79
2023/03/01 04:54:24;;;;;;;172.83;85.90;;;-3.40;99.90;;;;;;10464823;28;20244;-79
2023/03/01 04:59:27;;;;;;;152.23;79.53;;;-3.00;99.90;;;;;;10492777;28;20233;-79
2023/03/01 05:04:30;;;;;;;136.13;74.07;;;-2.70;99.90;;;;;;10493543;28;20226;-79
2023/03/01 05:09:33;;;;;;;166.47;84.63;;;-2.60;99.90;;;;;;10493242;28;20229;-79
2023/03/01 05:14:36;;;;;;;171.37;87.20;;;-2.60;99.90;;;;;;10492431;28;20264;-79
2023/03/01 05:19:38;;;;;;;166.57;85.03;;;-2.90;99.90;;;;;;10494305;28;20237;-79
2023/03/01 05:24:41;;;;;;;150.63;82.20;;;-3.10;99.90;;;;;;10491067;28;20243;-79
2023/03/01 05:29:43;;;;;;;160.40;84.93;;;-3.10;99.90;;;;;;10474493;28;20253;-79
2023/03/01 05:34:48;;;;;;;161.00;86.63;;;-3.40;99.90;;;;;;10475468;28;20256;-79
2023/03/01 05:39:51;;;;;;;161.83;85.20;;;-3.60;99.90;;;;;;10492670;28;20234;-78
2023/03/01 05:44:54;;;;;;;150.30;80.33;;;-3.80;99.90;;;;;;10490045;28;20254;-79
2023/03/01 05:49:57;;;;;;;167.50;86.67;;;-3.30;99.90;;;;;;10490250;28;20689;-79
2023/03/01 05:54:59;;;;;;;160.83;84.53;;;-2.80;99.90;;;;;;10507836;28;20667;-78
2023/03/01 06:00:03;;;;;;;152.50;81.67;;;-2.40;99.90;;;;;;10491801;28;20237;-79
2023/03/01 06:05:13;;;;;;;169.80;83.50;;;-2.50;99.90;;;;;;10491882;28;20260;-78
2023/03/01 06:10:18;;;;;;;169.83;87.87;;;-2.40;99.90;;;;;;10490716;28;20230;-79
2023/03/01 06:15:21;;;;;;;159.80;79.80;;;-1.90;99.90;;;;;;10485303;28;20230;-79
2023/03/01 06:20:26;;;;;;;175.93;92.93;;;-2.00;99.90;;;;;;10491452;28;20245;-79
2023/03/01 06:25:29;;;;;;;161.37;86.20;;;-1.40;99.90;;;;;;10490074;28;20638;-80
2023/03/01 06:30:31;;;;;;;140.20;73.83;;;-1.50;99.90;;;;;;10476560;28;20265;-81
2023/03/01 06:35:34;;;;;;;121.47;64.30;;;-1.00;99.90;;;;;;10491636;28;20238;-80
2023/03/01 06:40:37;;;;;;;117.97;64.87;;;-0.80;99.90;;;;;;10490499;28;20238;-80
2023/03/01 06:45:40;;;;;;;125.90;66.07;;;-0.80;99.90;;;;;;10489130;28;20346;-80
2023/03/01 06:50:42;;;;;;;136.80;60.70;;;-0.60;99.90;;;;;;10491093;28;20229;-82
2023/03/01 06:55:45;;;;;;;154.70;80.50;;;3.10;99.90;;;;;;10490904;28;20650;-81
2023/03/01 07:00:47;;;;;;;183.80;97.77;;;4.40;98.60;;;;;;10490222;28;20287;-81
2023/03/01 07:05:52;;;;;;;173.53;89.73;;;2.10;93.60;;;;;;10489388;28;20706;-81
2023/03/01 07:10:58;;;;;;;123.03;65.23;;;0.50;98.30;;;;;;10490935;28;20676;-80
2023/03/01 07:16:01;;;;;;;160.27;86.27;;;1.30;99.90;;;;;;10490209;28;20225;-80
2023/03/01 07:21:08;;;;;;;167.33;90.33;;;3.10;95.90;;;;;;10488091;28;20293;-80
2023/03/01 07:26:11;;;;;;;167.90;92.50;;;2.20;99.60;;;;;;10468573;28;20772;-81
2023/03/01 07:31:14;;;;;;;136.70;70.37;;;1.70;99.50;;;;;;10487061;28;20634;-81
2023/03/01 07:36:16;;;;;;;144.73;76.70;;;1.20;99.90;;;;;;10475406;28;20246;-80
2023/03/01 07:41:19;;;;;;;148.90;80.93;;;1.10;99.90;;;;;;10463396;28;20618;-80
2023/03/01 07:46:22;;;;;;;141.00;79.13;;;1.30;99.90;;;;;;10466477;28;20657;-80
2023/03/01 07:51:24;;;;;;;151.10;78.17;;;0.90;99.90;;;;;;10456531;28;20241;-80
2023/03/01 07:56:27;;;;;;;153.73;80.00;;;1.10;99.90;;;;;;10480731;28;20274;-80
2023/03/01 08:01:29;;;;;;;135.33;74.80;;;1.20;99.90;;;;;;10495134;28;20241;-80
2023/03/01 08:06:34;;;;;;;125.77;67.30;;;1.40;99.90;;;;;;10494250;28;20252;-80
2023/03/01 08:11:37;;;;;;;113.47;64.57;;;1.50;99.90;;;;;;10484122;28;20749;-80
2023/03/01 08:16:40;;;;;;;113.33;57.90;;;2.00;99.90;;;;;;10471147;28;20250;-80
2023/03/01 08:21:42;;;;;;;88.37;48.03;;;2.50;99.90;;;;;;10480877;28;20243;-80
2023/03/01 08:26:45;;;;;;;79.20;45.60;;;3.90;99.90;;;;;;10464458;28;20305;-80
2023/03/01 08:31:48;;;;;;;84.77;45.73;;;5.50;98.90;;;;;;10493203;28;20246;-80
2023/03/01 08:36:52;;;;;;;100.60;51.60;;;6.50;97.10;;;;;;10494821;28;20292;-80
2023/03/01 08:41:54;;;;;;;90.90;46.53;;;6.30;99.80;;;;;;10495237;28;20279;-80
2023/03/01 08:46:57;;;;;;;80.77;47.13;;;7.80;95.00;;;;;;10494730;28;20293;-80
2023/03/01 08:52:02;;;;;;;49.07;28.00;;;8.80;84.60;;;;;;10494133;28;20241;-80
2023/03/01 08:57:05;;;;;;;73.37;40.97;;;7.50;71.10;;;;;;10495279;28;20291;-78
2023/03/01 09:02:16;;;;;;;69.43;38.07;;;8.40;83.20;;;;;;10474776;28;20233;-78
2023/03/01 09:07:19;;;;;;;66.50;37.47;;;9.30;74.90;;;;;;10493302;28;20257;-78
2023/03/01 09:12:22;;;;;;;86.17;43.70;;;8.30;73.40;;;;;;10484311;28;20628;-80
2023/03/01 09:17:24;;;;;;;34.83;20.40;;;9.80;86.40;;;;;;10492877;28;20252;-80
2023/03/01 09:22:27;;;;;;;52.57;31.03;;;9.50;45.00;;;;;;10493540;28;20234;-80
2023/03/01 09:27:29;;;;;;;76.03;42.70;;;9.60;58.70;;;;;;10491998;28;20258;-80
2023/03/01 09:32:32;;;;;;;59.67;33.17;;;10.60;64.10;;;;;;10485860;28;20226;-79
2023/03/01 09:37:37;;;;;;;72.83;40.17;;;9.80;56.80;;;;;;10491811;28;20238;-80
2023/03/01 09:42:52;;;;;;;52.03;30.57;;;9.80;59.10;;;;;;10481463;28;20234;-79
2023/03/01 09:47:56;;;;;;;48.20;28.07;;;9.40;51.90;;;;;;10488083;28;20264;-80
2023/03/01 09:53:15;;;;;;;56.07;31.13;;;9.90;52.90;;;;;;10491394;28;20238;-80
2023/03/01 09:58:41;;;;;;;48.57;28.70;;;9.60;56.90;;;;;;10490083;28;20241;-80
2023/03/01 10:04:00;;;;;;;49.73;27.80;;;10.10;55.40;;;;;;10490052;28;20698;-80
2023/03/01 10:09:16;;;;;;;15.80;9.90;;;9.90;46.80;;;;;;10502044;28;20339;-80
2023/03/01 10:14:40;;;;;;;15.80;10.03;;;9.50;37.40;;;;;;10491000;28;20225;-80
2023/03/01 10:19:45;;;;;;;16.73;8.67;;;8.70;42.10;;;;;;10448594;28;20244;-80
2023/03/01 10:24:49;;;;;;;18.20;10.13;;;7.80;43.60;;;;;;10456300;28;20228;-80
2023/03/01 10:29:58;;;;;;;60.50;31.30;;;7.30;48.80;;;;;;10490197;28;20709;-80
2023/03/01 10:35:23;;;;;;;68.80;38.57;;;9.20;90.30;;;;;;10490092;28;20221;-80
2023/03/01 10:40:26;;;;;;;21.03;11.83;;;9.50;69.80;;;;;;10480876;28;20236;-80
2023/03/01 10:45:38;;;;;;;60.93;33.20;;;10.30;45.00;;;;;;10470127;28;20229;-80
2023/03/01 10:50:46;;;;;;;22.40;14.53;;;10.60;62.50;;;;;;10464473;28;20230;-80
2023/03/01 10:55:58;;;;;;;50.00;28.23;;;11.00;42.40;;;;;;10470680;28;20253;-80
2023/03/01 11:01:04;;;;;;;44.17;25.97;;;10.80;48.00;;;;;;10470978;28;20230;-80
2023/03/01 11:06:12;;;;;;;49.43;27.63;;;10.30;50.40;;;;;;10481239;28;20245;-80
2023/03/01 11:11:31;;;;;;;44.87;25.43;;;10.90;57.80;;;;;;10489391;28;20222;-79
2023/03/01 11:16:37;;;;;;;19.23;9.43;;;10.40;52.80;;;;;;10486899;28;20702;-81
2023/03/01 11:21:47;;;;;;;37.57;21.40;;;10.00;40.60;;;;;;10479173;28;20241;-80
2023/03/01 11:26:54;;;;;;;46.20;24.43;;;8.80;55.80;;;;;;10487793;28;20254;-80
2023/03/01 11:32:00;;;;;;;30.30;15.47;;;9.00;61.70;;;;;;10490731;28;20306;-79
2023/03/01 11:37:17;;;;;;;25.70;16.03;;;9.60;55.90;;;;;;10496902;28;20240;-80
2023/03/01 11:42:27;;;;;;;15.13;9.37;;;8.80;56.00;;;;;;10496554;28;20241;-80
2023/03/01 11:47:48;;;;;;;12.03;7.40;;;7.50;52.60;;;;;;10511716;28;20249;-80
2023/03/01 11:53:18;;;;;;;45.53;26.00;;;6.90;57.50;;;;;;10491403;28;20684;-79
2023/03/01 11:58:26;;;;;;;34.90;21.10;;;8.00;90.40;;;;;;10498991;28;20235;-79
2023/03/01 12:04:07;;;;;;;50.90;27.10;;;8.70;76.00;;;;;;10511811;28;20244;-79
2023/03/01 12:09:18;;;;;;;39.40;23.80;;;9.70;82.10;;;;;;10327409;28;20381;-79
2023/03/01 12:14:32;;;;;;;20.67;11.77;;;10.10;75.30;;;;;;10311207;28;20294;-79
2023/03/01 12:19:57;;;;;;;21.77;12.53;;;9.40;59.90;;;;;;10325522;28;20627;-79
2023/03/01 12:25:14;;;;;;;28.37;16.80;;;9.40;62.60;;;;;;10326965;28;20236;-79
2023/03/01 12:30:48;;;;;;;22.53;13.03;;;9.30;58.40;;;;;;10326724;28;20259;-79
2023/03/01 12:36:26;;;;;;;15.70;7.77;;;8.70;58.70;;;;;;10320372;28;20836;-79
2023/03/01 12:41:59;;;;;;;10.60;6.70;;;9.10;56.70;;;;;;10382236;28;20244;-79
2023/03/01 12:47:25;;;;;;;30.60;16.50;;;8.60;58.70;;;;;;10494677;28;20248;-79
2023/03/01 12:52:47;;;;;;;15.83;7.40;;;8.50;78.40;;;;;;10475598;28;20266;-79
2023/03/01 12:58:24;;;;;;;12.53;6.70;;;8.30;62.60;;;;;;10491755;28;20258;-79
2023/03/01 13:04:03;;;;;;;15.77;9.23;;;7.50;65.10;;;;;;10462682;28;20243;-79
2023/03/01 13:09:21;;;;;;;28.23;16.87;;;7.40;69.50;;;;;;10496068;28;20323;-79
2023/03/01 13:14:23;;;;;;;11.83;7.23;;;8.10;89.80;;;;;;10483042;28;20263;-79
2023/03/01 13:19:35;;;;;;;28.47;17.33;;;8.90;64.80;;;;;;10491502;28;20265;-79
2023/03/01 13:24:42;;;;;;;37.67;20.83;;;9.20;75.30;;;;;;10491215;28;20247;-79
2023/03/01 13:29:53;;;;;;;32.20;17.87;;;9.10;83.70;;;;;;10469083;28;20813;-79
2023/03/01 13:35:18;;;;;;;7.43;4.70;;;9.30;76.20;;;;;;10477698;28;20636;-79
2023/03/01 13:40:22;;;;;;;11.53;5.57;;;9.00;56.90;;;;;;10472343;28;20226;-79
2023/03/01 13:45:38;;;;;;;21.30;13.47;;;9.40;62.60;;;;;;10476824;28;20234;-79
2023/03/01 13:51:14;;;;;;;12.23;7.60;;;9.30;69.40;;;;;;10477631;28;20907;-79
2023/03/01 13:56:21;;;;;;;24.77;14.67;;;8.80;63.10;;;;;;10331809;28;20716;-79
2023/03/01 14:01:28;;;;;;;23.87;15.07;;;8.80;77.80;;;;;;10322184;28;20696;-79
2023/03/01 14:06:35;;;;;;;16.57;10.87;;;9.90;69.40;;;;;;10320133;28;20307;-78
2023/03/01 14:11:53;;;;;;;16.97;11.47;;;10.50;55.00;;;;;;10322140;28;20244;-79
2023/03/01 14:17:17;;;;;;;25.87;15.97;;;10.80;53.00;;;;;;10323077;28;20291;-79
2023/03/01 14:22:40;;;;;;;31.00;19.30;;;9.60;66.30;;;;;;10320742;28;20236;-79
2023/03/01 14:27:43;;;;;;;13.67;8.80;;;10.50;77.20;;;;;;10322410;28;20264;-79
2023/03/01 14:33:01;;;;;;;31.50;18.40;;;9.90;56.50;;;;;;10474194;28;20312;-79
2023/03/01 14:38:04;;;;;;;23.77;14.27;;;10.00;82.30;;;;;;10486957;28;20241;-79
2023/03/01 14:43:19;;;;;;;24.67;17.10;;;10.50;63.40;;;;;;10489174;28;20669;-79
2023/03/01 14:48:23;;;;;;;24.67;14.10;;;10.40;64.60;;;;;;10486852;28;20257;-79
2023/03/01 14:53:29;;;;;;;25.17;15.97;;;10.00;63.90;;;;;;10489550;28;20237;-79
2023/03/01 14:58:38;;;;;;;20.77;13.13;;;10.20;70.20;;;;;;10490151;28;20242;-79
2023/03/01 15:03:43;;;;;;;29.10;17.43;;;9.80;65.90;;;;;;10487727;28;20295;-79
2023/03/01 15:08:50;;;;;;;19.43;10.83;;;10.60;77.10;;;;;;10489175;28;20250;-79
2023/03/01 15:13:53;;;;;;;32.60;15.60;;;11.00;57.60;;;;;;10488298;28;20312;-79
2023/03/01 15:19:06;;;;;;;26.40;16.40;;;9.90;63.00;;;;;;10489711;28;20299;-79
2023/03/01 15:24:19;;;;;;;20.33;12.20;;;10.20;68.50;;;;;;10489623;28;20252;-79
2023/03/01 15:29:29;;;;;;;23.57;14.90;;;10.70;65.00;;;;;;10489493;28;20728;-79
2023/03/01 15:34:37;;;;;;;19.33;10.97;;;11.00;67.60;;;;;;10490158;28;20279;-79
2023/03/01 15:39:45;;;;;;;29.80;13.20;;;10.50;57.40;;;;;;10488516;28;20678;-79
2023/03/01 15:44:48;;;;;;;26.50;12.27;;;10.00;56.30;;;;;;10488649;28;20291;-78
2023/03/01 15:49:53;;;;;;;19.80;11.73;;;9.70;58.30;;;;;;9789469;28;10001282;-79
2023/03/01 15:55:01;;;;;;;21.53;12.77;;;9.20;65.90;;;;;;10484988;28;20488;-79
2023/03/01 16:00:11;;;;;;;22.07;13.53;;;9.40;73.50;;;;;;10483526;28;20237;-79
2023/03/01 16:05:19;;;;;;;18.10;12.17;;;9.50;70.40;;;;;;10484724;28;20238;-79
2023/03/01 16:10:22;;;;;;;22.17;13.30;;;9.40;66.70;;;;;;10486956;28;20698;-78
2023/03/01 16:15:30;;;;;;;19.37;9.60;;;9.30;70.10;;;;;;10484636;28;20268;-79
2023/03/01 16:20:34;;;;;;;15.63;9.57;;;8.20;63.60;;;;;;10489252;28;20659;-79
2023/03/01 16:25:37;;;;;;;20.17;9.90;;;7.20;70.20;;;;;;10493346;28;20316;-79
2023/03/01 16:30:40;;;;;;;20.23;10.80;;;6.30;80.40;;;;;;10471168;28;20258;-79
2023/03/01 16:35:43;;;;;;;19.67;11.03;;;5.50;87.40;;;;;;10452820;28;20680;-79
2023/03/01 16:40:51;;;;;;;19.80;11.37;;;4.90;92.40;;;;;;10451943;28;20695;-79
2023/03/01 16:45:54;;;;;;;30.03;16.67;;;4.40;95.90;;;;;;10476486;28;20946;-79
2023/03/01 16:51:01;;;;;;;44.27;20.20;;;4.10;98.70;;;;;;10489777;28;20722;-79
2023/03/01 16:56:07;;;;;;;42.57;19.40;;;3.90;99.90;;;;;;10492970;28;20290;-79
2023/03/01 17:01:11;;;;;;;45.57;20.37;;;3.60;99.90;;;;;;9794133;28;10000601;-79
2023/03/01 17:06:17;;;;;;;48.93;19.60;;;3.40;99.90;;;;;;10490028;28;20231;-79
2023/03/01 17:11:20;;;;;;;43.10;19.50;;;3.20;99.90;;;;;;10479563;28;20262;-79
2023/03/01 17:16:23;;;;;;;32.77;16.57;;;3.00;99.90;;;;;;10491091;28;20724;-79
2023/03/01 17:21:25;;;;;;;28.10;15.73;;;2.70;99.90;;;;;;10491457;28;20636;-79
2023/03/01 17:26:28;;;;;;;27.47;13.87;;;2.50;99.90;;;;;;10506853;28;20245;-79
2023/03/01 17:31:32;;;;;;;18.47;11.07;;;2.40;99.90;;;;;;10492467;28;20730;-79
2023/03/01 17:36:43;;;;;;;22.17;11.47;;;2.20;99.90;;;;;;10488057;28;20624;-79
2023/03/01 17:41:46;;;;;;;24.20;14.13;;;;;;;;;;10486916;28;20307;-79
2023/03/01 17:46:49;;;;;;;42.60;20.23;;;2.10;99.90;;;;;;10505663;28;20719;-79
2023/03/01 17:51:51;;;;;;;42.30;19.43;;;2.00;99.90;;;;;;10492375;28;20304;-79
2023/03/01 17:56:55;;;;;;;53.40;21.60;;;1.90;99.90;;;;;;10490282;28;20682;-79
2023/03/01 18:02:00;;;;;;;50.07;21.63;;;1.90;99.90;;;;;;10490511;28;20234;-79
2023/03/01 18:07:02;;;;;;;28.70;15.50;;;1.50;99.90;;;;;;10485639;28;20996;-79
2023/03/01 18:12:05;;;;;;;41.90;17.10;;;1.30;99.90;;;;;;10495285;28;20250;-79
2023/03/01 18:17:10;;;;;;;45.90;22.30;;;1.30;99.90;;;;;;10489333;28;20629;-79
2023/03/01 18:22:14;;;;;;;64.77;31.67;;;1.20;99.90;;;;;;10487769;28;20995;-79
2023/03/01 18:27:17;;;;;;;58.87;31.87;;;1.50;99.90;;;;;;10493752;28;20323;-78
2023/03/01 18:32:20;;;;;;;31.87;14.50;;;1.70;99.90;;;;;;10490131;28;20250;-79
2023/03/01 18:37:23;;;;;;;32.20;17.03;;;1.80;99.90;;;;;;10475475;28;20238;-80
2023/03/01 18:42:26;;;;;;;43.70;21.90;;;1.60;99.90;;;;;;10463141;28;20226;-79
2023/03/01 18:47:28;;;;;;;76.20;38.07;;;1.30;99.90;;;;;;10482262;28;20255;-79
2023/03/01 18:52:31;;;;;;;95.27;50.57;;;;;;;;;;10497083;28;20241;-80
2023/03/01 18:57:34;;;;;;;78.43;46.23;;;0.80;99.90;;;;;;10477597;28;20275;-80
2023/03/01 19:02:36;;;;;;;81.93;47.03;;;0.60;99.90;;;;;;10488915;28;20233;-80
2023/03/01 19:07:39;;;;;;;88.37;45.87;;;0.50;99.90;;;;;;10487114;28;20238;-80
2023/03/01 19:12:41;;;;;;;64.60;37.00;;;0.50;99.90;;;;;;10487870;28;20749;-80
2023/03/01 19:17:44;;;;;;;67.67;35.70;;;0.40;99.90;;;;;;10491425;28;20655;-80
2023/03/01 19:22:47;;;;;;;68.43;37.57;;;0.30;99.90;;;;;;10487615;28;20613;-80
2023/03/01 19:27:49;;;;;;;86.07;42.40;;;0.40;99.90;;;;;;10473698;28;20268;-80
2023/03/01 19:32:52;;;;;;;65.77;36.40;;;0.40;99.90;;;;;;10487960;28;20639;-80
2023/03/01 19:37:55;;;;;;;79.97;38.33;;;0.20;99.90;;;;;;10480094;28;20234;-80
2023/03/01 19:42:58;;;;;;;79.57;39.60;;;0.10;99.90;;;;;;10471277;28;20230;-80
2023/03/01 19:48:00;;;;;;;82.93;43.43;;;0.00;99.90;;;;;;10489896;28;20663;-80
2023/03/01 19:53:04;;;;;;;69.50;35.57;;;-0.20;99.90;;;;;;10466179;28;20233;-80
2023/03/01 19:58:09;;;;;;;71.10;38.67;;;-0.10;99.90;;;;;;10497936;28;20634;-80
2023/03/01 20:03:12;;;;;;;55.93;34.33;;;-0.10;99.90;;;;;;10481498;28;20270;-80
2023/03/01 20:08:14;;;;;;;73.43;39.30;;;-0.10;99.90;;;;;;10485442;28;20295;-80
2023/03/01 20:13:19;;;;;;;71.70;40.20;;;-0.30;99.90;;;;;;10481975;28;20638;-80
2023/03/01 20:18:23;;;;;;;68.43;39.00;;;0.00;99.90;;;;;;10474254;28;20234;-80
2023/03/01 20:23:26;;;;;;;74.10;39.13;;;-1.00;99.90;;;;;;10492210;28;20709;-80
2023/03/01 20:28:29;;;;;;;55.83;31.17;;;-0.40;99.90;;;;;;10500212;28;20308;-80
2023/03/01 20:33:31;;;;;;;55.20;30.03;;;-0.20;99.90;;;;;;10479376;28;20303;-79
2023/03/01 20:38:37;;;;;;;72.23;37.80;;;-0.10;99.90;;;;;;10485191;28;20230;-80
2023/03/01 20:43:41;;;;;;;69.10;36.40;;;-0.10;99.90;;;;;;10491065;28;20276;-80
2023/03/01 20:48:44;;;;;;;55.67;32.87;;;-0.20;99.90;;;;;;10486189;28;20831;-79
2023/03/01 20:53:46;;;;;;;56.30;30.80;;;0.00;99.90;;;;;;10473802;28;20226;-79
2023/03/01 20:58:49;;;;;;;79.50;44.00;;;0.10;99.90;;;;;;10479763;28;20230;-80
2023/03/01 21:03:52;;;;;;;93.80;48.47;;;-0.20;99.90;;;;;;10480057;28;20752;-80
2023/03/01 21:08:55;;;;;;;94.63;50.07;;;-0.20;99.90;;;;;;10492373;28;20330;-80
2023/03/01 21:13:58;;;;;;;81.80;43.80;;;-0.20;99.90;;;;;;10482556;28;20226;-80
2023/03/01 21:19:03;;;;;;;103.57;53.23;;;-0.10;99.90;;;;;;10481766;28;20292;-80
2023/03/01 21:24:09;;;;;;;97.30;52.03;;;-0.10;99.90;;;;;;10507020;28;20264;-80
2023/03/01 21:29:11;;;;;;;96.37;51.17;;;-0.10;99.90;;;;;;10492092;28;20266;-80
2023/03/01 21:34:14;;;;;;;98.40;52.70;;;-0.10;99.90;;;;;;10489171;28;20307;-80
2023/03/01 21:39:16;;;;;;;102.20;53.80;;;-0.40;99.90;;;;;;10493321;28;20716;-80
2023/03/01 21:44:19;;;;;;;88.27;47.83;;;-0.50;99.90;;;;;;10524005;28;20242;-80
2023/03/01 21:49:22;;;;;;;83.30;42.97;;;-0.40;99.90;;;;;;10483566;28;20276;-80
2023/03/01 21:54:25;;;;;;;77.10;41.50;;;-0.40;99.90;;;;;;10488111;28;20680;-80
2023/03/01 21:59:27;;;;;;;90.73;48.37;;;-0.70;99.90;;;;;;10490198;28;20230;-80
2023/03/01 22:04:30;;;;;;;78.33;42.50;;;-1.00;99.90;;;;;;10487910;28;20238;-80
2023/03/01 22:09:35;;;;;;;94.20;50.47;;;-1.10;99.90;;;;;;10486801;28;20257;-80
2023/03/01 22:14:37;;;;;;;102.03;53.57;;;-0.80;99.90;;;;;;10487113;28;20221;-80
2023/03/01 22:19:40;;;;;;;110.67;56.80;;;-1.00;99.90;;;;;;10488101;28;20236;-80
2023/03/01 22:24:42;;;;;;;125.77;61.87;;;-0.80;99.90;;;;;;10487537;28;20688;-80
2023/03/01 22:29:45;;;;;;;120.03;62.00;;;-0.90;99.90;;;;;;10488499;28;20265;-79
2023/03/01 22:34:47;;;;;;;129.70;65.70;;;-1.00;99.90;;;;;;10488591;28;20229;-79
2023/03/01 22:39:50;;;;;;;105.40;53.17;;;-1.00;99.90;;;;;;10485417;28;20381;-79
2023/03/01 22:44:53;;;;;;;139.57;68.73;;;-1.00;99.90;;;;;;10486573;28;20310;-80
2023/03/01 22:49:55;;;;;;;130.33;65.03;;;-1.20;99.90;;;;;;10486600;28;20258;-79
2023/03/01 22:54:58;;;;;;;116.50;57.87;;;-1.20;99.90;;;;;;10486011;28;20237;-80
2023/03/01 23:00:05;;;;;;;118.17;64.07;;;-0.60;99.90;;;;;;10485793;28;20299;-79
2023/03/01 23:05:08;;;;;;;128.37;60.83;;;-0.90;99.90;;;;;;10488348;28;20958;-80
2023/03/01 23:10:12;;;;;;;121.07;59.17;;;-1.10;99.90;;;;;;10447207;28;20257;-79
2023/03/01 23:15:14;;;;;;;129.20;62.33;;;-1.20;99.90;;;;;;10475419;28;20228;-79
2023/03/01 23:20:17;;;;;;;129.07;68.67;;;-1.20;99.90;;;;;;10487894;28;20233;-79
2023/03/01 23:25:19;;;;;;;120.40;62.73;;;-1.20;99.90;;;;;;10486884;28;20242;-79
2023/03/01 23:30:22;;;;;;;135.60;64.43;;;-1.30;99.90;;;;;;10487977;28;20315;-79
2023/03/01 23:35:28;;;;;;;137.23;66.30;;;-1.40;99.90;;;;;;10490635;28;20232;-79
2023/03/01 23:40:30;;;;;;;137.97;67.13;;;-1.50;99.90;;;;;;10490246;28;20238;-79
2023/03/01 23:45:41;;;;;;;160.40;73.13;;;-1.70;99.90;;;;;;10487066;28;20225;-79
2023/03/01 23:50:44;;;;;;;153.60;70.17;;;-1.70;99.90;;;;;;10484846;28;20253;-79
2023/03/01 23:55:52;;;;;;;160.30;75.03;;;-1.60;99.90;;;;;;10489735;28;20687;-79
